Time;durP1;ratioP1;P1;durP2;ratioP2;P2;SDS_P1;SDS_P2;PMS_P1;PMS_P2;Temp;Humidity;BMP_temperature;BMP_pressure;BME280_temperature;BME280_humidity;BME280_pressure;Samples;Min_cycle;Max_cycle;Signal;HPM_P1;HPM_P2
2021/07/31 00:02:08;;;;;;;8.93;3.10;;;21.90;99.90;;;;;;4974961;28;20189;-72
2021/07/31 00:04:34;;;;;;;3.30;3.00;;;21.90;99.90;;;;;;4991551;28;20263;-72
2021/07/31 00:07:00;;;;;;;4.50;3.50;;;21.90;99.90;;;;;;4992486;28;20907;-72
2021/07/31 00:09:25;;;;;;;3.30;3.00;;;21.80;99.90;;;;;;4992973;28;20197;-72
2021/07/31 00:11:51;;;;;;;3.30;3.00;;;21.80;99.90;;;;;;4991577;28;20252;-72
2021/07/31 00:14:17;;;;;;;3.67;2.90;;;21.70;99.90;;;;;;4994410;28;20198;-72
2021/07/31 00:16:43;;;;;;;3.30;3.00;;;21.70;99.90;;;;;;4988851;28;20210;-72
2021/07/31 00:19:09;;;;;;;3.13;2.83;;;21.50;99.90;;;;;;4989664;28;20473;-72
2021/07/31 00:21:35;;;;;;;3.40;2.90;;;21.40;99.90;;;;;;4998578;28;20526;-72
2021/07/31 00:24:00;;;;;;;4.10;3.67;;;21.40;99.90;;;;;;4990005;28;20208;-72
2021/07/31 00:26:26;;;;;;;3.23;3.00;;;21.40;99.90;;;;;;4994350;28;20292;-72
2021/07/31 00:28:52;;;;;;;3.77;3.13;;;21.30;99.90;;;;;;4998487;28;20280;-72
2021/07/31 00:31:17;;;;;;;3.53;3.23;;;21.40;99.90;;;;;;4988748;28;20228;-72
2021/07/31 00:33:43;;;;;;;3.73;3.40;;;21.30;99.90;;;;;;4992584;28;20213;-72
2021/07/31 00:36:09;;;;;;;4.60;2.93;;;21.30;99.90;;;;;;4995125;28;20643;-72
2021/07/31 00:38:34;;;;;;;3.50;3.20;;;21.30;99.90;;;;;;4988618;28;20193;-72
2021/07/31 00:41:00;;;;;;;3.20;2.80;;;21.30;99.90;;;;;;4996853;28;20192;-71
2021/07/31 00:43:25;;;;;;;3.77;3.47;;;21.30;99.90;;;;;;4990449;28;20231;-72
2021/07/31 00:45:51;;;;;;;3.57;3.27;;;21.20;99.90;;;;;;4991848;28;20216;-72
2021/07/31 00:48:17;;;;;;;4.60;3.30;;;21.30;99.90;;;;;;4996623;28;20193;-71
2021/07/31 00:50:43;;;;;;;4.30;3.07;;;21.30;99.90;;;;;;4985089;28;20455;-71
2021/07/31 00:53:09;;;;;;;4.03;3.63;;;21.10;99.90;;;;;;4990765;28;20456;-71
2021/07/31 00:55:36;;;;;;;3.53;3.23;;;21.10;99.90;;;;;;4994647;28;20479;-72
2021/07/31 00:58:02;;;;;;;4.53;3.13;;;21.00;99.90;;;;;;4992008;28;20437;-72
2021/07/31 01:00:27;;;;;;;8.17;4.03;;;21.00;99.90;;;;;;4989651;28;20437;-72
2021/07/31 01:02:53;;;;;;;3.83;3.33;;;20.90;99.90;;;;;;4986500;28;20508;-71
2021/07/31 01:05:20;;;;;;;3.53;3.23;;;20.80;99.90;;;;;;4992256;28;20641;-72
2021/07/31 01:07:45;;;;;;;4.50;3.03;;;20.90;99.90;;;;;;4991975;28;20664;-73
2021/07/31 01:10:12;;;;;;;3.13;2.83;;;20.90;99.90;;;;;;4988514;28;20439;-73
2021/07/31 01:12:39;;;;;;;4.90;3.60;;;21.00;99.90;;;;;;4989911;28;20767;-72
2021/07/31 01:15:05;;;;;;;3.87;3.07;;;20.90;99.90;;;;;;4989394;28;20521;-72
2021/07/31 01:17:31;;;;;;;4.10;3.40;;;20.80;99.90;;;;;;4987800;28;20443;-72
2021/07/31 01:19:57;;;;;;;4.13;3.33;;;20.70;99.90;;;;;;4990125;28;20432;-72
2021/07/31 01:22:22;;;;;;;3.20;2.90;;;20.50;99.90;;;;;;4988865;28;20182;-72
2021/07/31 01:24:48;;;;;;;5.73;3.40;;;20.50;99.90;;;;;;4974745;28;20309;-72
2021/07/31 01:27:14;;;;;;;3.97;3.20;;;20.60;99.90;;;;;;4991838;28;20188;-72
2021/07/31 01:29:39;;;;;;;2.80;2.60;;;20.60;99.90;;;;;;4987314;28;20193;-72
2021/07/31 01:32:05;;;;;;;5.17;3.27;;;20.70;99.90;;;;;;4991596;28;20201;-72
2021/07/31 01:34:31;;;;;;;4.13;3.07;;;20.60;99.90;;;;;;4986164;28;20702;-71
2021/07/31 01:36:56;;;;;;;3.00;2.70;;;20.70;99.90;;;;;;4971643;28;20448;-72
2021/07/31 01:39:22;;;;;;;3.83;2.63;;;20.70;99.90;;;;;;4992818;28;20189;-72
2021/07/31 01:41:48;;;;;;;6.03;2.60;;;20.60;99.90;;;;;;4991385;28;20192;-72
2021/07/31 01:44:14;;;;;;;3.27;2.57;;;20.70;99.90;;;;;;4988831;28;20352;-73
2021/07/31 01:46:44;;;;;;;3.40;2.77;;;20.60;99.90;;;;;;4994510;28;20463;-72
2021/07/31 01:49:09;;;;;;;4.43;2.50;;;20.70;99.90;;;;;;4984564;28;20428;-73
2021/07/31 01:51:35;;;;;;;3.87;2.70;;;20.70;99.90;;;;;;4989913;28;20436;-72
2021/07/31 01:54:01;;;;;;;3.83;3.40;;;20.60;99.90;;;;;;4991836;28;20185;-72
2021/07/31 01:56:27;;;;;;;6.40;2.90;;;20.60;99.90;;;;;;4972621;28;20256;-72
2021/07/31 01:58:53;;;;;;;5.70;2.60;;;20.60;99.90;;;;;;4992799;28;20265;-72
2021/07/31 02:01:19;;;;;;;4.60;2.70;;;20.60;99.90;;;;;;4989527;28;20594;-72
2021/07/31 02:03:44;;;;;;;7.10;2.97;;;20.70;99.90;;;;;;4990951;28;20182;-72
2021/07/31 02:06:10;;;;;;;3.03;2.70;;;20.70;99.90;;;;;;4992654;28;20645;-72
2021/07/31 02:08:36;;;;;;;3.30;2.53;;;20.70;99.90;;;;;;4991209;28;20204;-71
2021/07/31 02:11:01;;;;;;;6.47;2.80;;;20.60;99.90;;;;;;4994192;28;20257;-73
2021/07/31 02:13:27;;;;;;;6.53;2.50;;;20.60;99.90;;;;;;4986875;28;20191;-71
2021/07/31 02:15:53;;;;;;;4.23;2.77;;;20.50;99.90;;;;;;4990541;28;20237;-70
2021/07/31 02:18:18;;;;;;;2.93;2.40;;;20.60;99.90;;;;;;4993283;28;20639;-72
2021/07/31 02:20:44;;;;;;;3.03;2.57;;;20.60;99.90;;;;;;4988658;28;20197;-73
2021/07/31 02:23:10;;;;;;;3.80;2.60;;;20.50;99.90;;;;;;4989934;28;20633;-71
2021/07/31 02:25:35;;;;;;;6.70;3.13;;;20.50;99.90;;;;;;4992402;28;20233;-72
2021/07/31 02:28:01;;;;;;;4.57;2.77;;;20.40;99.90;;;;;;4987357;28;20228;-72
2021/07/31 02:30:27;;;;;;;6.60;2.90;;;20.40;99.90;;;;;;4996335;28;20268;-71
2021/07/31 02:32:52;;;;;;;5.87;2.70;;;20.30;99.90;;;;;;4988723;28;20201;-71
2021/07/31 02:35:18;;;;;;;3.50;2.70;;;20.20;99.90;;;;;;4992409;28;20240;-71
2021/07/31 02:37:44;;;;;;;3.70;2.60;;;20.20;99.90;;;;;;4994961;28;20181;-71
2021/07/31 02:40:10;;;;;;;4.50;2.43;;;20.30;99.90;;;;;;4991492;28;20182;-71
2021/07/31 02:42:36;;;;;;;4.50;2.67;;;20.30;99.90;;;;;;4993516;28;20230;-72
2021/07/31 02:45:04;;;;;;;2.50;2.23;;;20.20;99.90;;;;;;4999680;28;20455;-72
2021/07/31 02:47:30;;;;;;;4.20;2.30;;;20.10;99.90;;;;;;4992856;28;20951;-72
2021/07/31 02:49:56;;;;;;;4.30;2.60;;;20.10;99.90;;;;;;4992178;28;20451;-73
2021/07/31 02:52:22;;;;;;;3.83;2.80;;;20.00;99.90;;;;;;4998044;28;20428;-72
2021/07/31 02:54:49;;;;;;;4.83;2.83;;;19.90;99.90;;;;;;4991569;28;20841;-73
2021/07/31 02:57:15;;;;;;;6.73;2.50;;;19.80;99.90;;;;;;4996793;28;20518;-73
2021/07/31 02:59:40;;;;;;;3.70;2.60;;;19.80;99.90;;;;;;4999287;28;20443;-72
2021/07/31 03:02:06;;;;;;;4.53;3.00;;;19.80;99.90;;;;;;4991379;28;20244;-72
2021/07/31 03:04:32;;;;;;;3.03;2.63;;;19.90;99.90;;;;;;4994706;28;20590;-72
2021/07/31 03:06:57;;;;;;;3.80;2.57;;;19.90;99.90;;;;;;4989923;28;20713;-72
2021/07/31 03:09:23;;;;;;;4.90;2.40;;;19.80;99.90;;;;;;4992254;28;20201;-72
2021/07/31 03:11:49;;;;;;;6.60;2.87;;;19.80;99.90;;;;;;4996253;28;20185;-72
2021/07/31 03:14:15;;;;;;;7.07;3.37;;;19.80;99.90;;;;;;4991676;28;20463;-72
2021/07/31 03:16:40;;;;;;;5.03;2.47;;;19.70;99.90;;;;;;4992693;28;20559;-72
2021/07/31 03:19:06;;;;;;;5.13;2.60;;;19.70;99.90;;;;;;4994896;28;20849;-72
2021/07/31 03:21:32;;;;;;;8.40;2.87;;;19.60;99.90;;;;;;4992102;28;20244;-72
2021/07/31 03:23:57;;;;;;;4.70;2.93;;;19.50;99.90;;;;;;4992576;28;20596;-72
2021/07/31 03:26:23;;;;;;;3.80;2.67;;;19.50;99.90;;;;;;4998312;28;20205;-72
2021/07/31 03:28:48;;;;;;;5.13;2.73;;;19.60;99.90;;;;;;4993674;28;20617;-72
2021/07/31 03:31:22;;;;;;;3.90;2.67;;;19.50;99.90;;;;;;4994078;28;20907;-73
2021/07/31 03:33:48;;;;;;;4.00;2.80;;;19.50;99.90;;;;;;4994585;28;20619;-72
2021/07/31 03:36:14;;;;;;;4.20;2.50;;;19.60;99.90;;;;;;4994205;28;20835;-72
2021/07/31 03:38:40;;;;;;;3.23;2.40;;;19.50;99.90;;;;;;4992858;28;20433;-72
2021/07/31 03:41:05;;;;;;;7.47;2.40;;;19.50;99.90;;;;;;4990247;28;20278;-72
2021/07/31 03:43:31;;;;;;;3.07;2.50;;;19.30;99.90;;;;;;4992470;28;21054;-72
2021/07/31 03:45:56;;;;;;;6.70;2.80;;;19.30;99.90;;;;;;4992851;28;20445;-72
2021/07/31 03:48:22;;;;;;;2.63;2.43;;;19.30;99.90;;;;;;4986131;28;20193;-72
2021/07/31 03:50:48;;;;;;;5.07;2.50;;;19.30;99.90;;;;;;4995115;28;20190;-72
2021/07/31 03:53:14;;;;;;;3.40;2.23;;;19.30;99.90;;;;;;4988090;28;20189;-72
2021/07/31 03:55:39;;;;;;;5.10;2.70;;;19.30;99.90;;;;;;4996077;28;20468;-72
2021/07/31 03:58:05;;;;;;;3.30;2.60;;;19.40;99.90;;;;;;4992429;28;20278;-72
2021/07/31 04:00:31;;;;;;;5.30;2.40;;;19.30;99.90;;;;;;4989587;28;20174;-72
2021/07/31 04:02:57;;;;;;;4.27;2.70;;;19.40;99.90;;;;;;4969814;28;20214;-72
2021/07/31 04:05:22;;;;;;;8.43;2.60;;;19.40;99.90;;;;;;4995785;28;20884;-72
2021/07/31 04:07:48;;;;;;;3.37;2.37;;;19.40;99.90;;;;;;4992530;28;20181;-72
2021/07/31 04:10:14;;;;;;;2.90;2.50;;;19.40;99.90;;;;;;4991174;28;20771;-72
2021/07/31 04:12:40;;;;;;;3.07;2.63;;;19.40;99.90;;;;;;4994940;28;20177;-71
2021/07/31 04:15:09;;;;;;;2.73;2.17;;;19.30;99.90;;;;;;4987114;28;20213;-71
2021/07/31 04:17:34;;;;;;;2.63;2.40;;;19.30;99.90;;;;;;4993124;28;20204;-73
2021/07/31 04:20:00;;;;;;;3.30;2.70;;;19.20;99.90;;;;;;4992514;28;20961;-72
2021/07/31 04:22:29;;;;;;;3.63;2.40;;;19.30;99.90;;;;;;4992158;28;20197;-72
2021/07/31 04:24:54;;;;;;;8.67;3.03;;;19.20;99.90;;;;;;4995020;28;20233;-71
2021/07/31 04:27:20;;;;;;;6.10;2.70;;;19.20;99.90;;;;;;4990461;28;21294;-73
2021/07/31 04:29:46;;;;;;;4.93;2.83;;;19.30;99.90;;;;;;4988311;28;20217;-71
2021/07/31 04:32:11;;;;;;;3.93;2.30;;;19.30;99.90;;;;;;4993105;28;20546;-72
2021/07/31 04:34:37;;;;;;;4.33;2.37;;;19.40;99.90;;;;;;4992799;28;20192;-71
2021/07/31 04:37:04;;;;;;;5.60;2.17;;;19.30;99.90;;;;;;5005206;28;20189;-71
2021/07/31 04:39:33;;;;;;;4.27;2.60;;;19.30;99.90;;;;;;5000302;28;20181;-72
2021/07/31 04:41:59;;;;;;;4.23;3.40;;;19.30;99.90;;;;;;4991325;28;20459;-72
2021/07/31 04:44:25;;;;;;;4.97;2.63;;;19.20;99.90;;;;;;5002584;28;20441;-73
2021/07/31 04:46:51;;;;;;;4.80;2.80;;;19.30;99.90;;;;;;4975609;28;20218;-71
2021/07/31 04:49:16;;;;;;;6.03;2.30;;;19.30;99.90;;;;;;4988399;28;20448;-72
2021/07/31 04:51:43;;;;;;;4.07;2.40;;;19.20;99.90;;;;;;4992146;28;20268;-72
2021/07/31 04:54:09;;;;;;;6.17;2.63;;;19.20;99.90;;;;;;4989968;28;20182;-72
2021/07/31 04:56:35;;;;;;;3.40;2.40;;;19.10;99.90;;;;;;4992194;28;20473;-73
2021/07/31 04:59:01;;;;;;;5.97;2.57;;;19.20;99.90;;;;;;4994361;28;20459;-71
2021/07/31 05:01:27;;;;;;;4.27;2.10;;;19.20;99.90;;;;;;4971633;28;20572;-71
2021/07/31 05:03:53;;;;;;;6.07;2.53;;;19.20;99.90;;;;;;4993076;28;20432;-71
2021/07/31 05:06:18;;;;;;;4.00;2.47;;;19.20;99.90;;;;;;4991814;28;20205;-72
2021/07/31 05:08:44;;;;;;;3.83;2.40;;;19.10;99.90;;;;;;4990737;28;20206;-71
2021/07/31 05:11:10;;;;;;;4.70;2.80;;;19.10;99.90;;;;;;4991607;28;20218;-72
2021/07/31 05:13:36;;;;;;;5.33;2.50;;;19.10;99.90;;;;;;4990011;28;20194;-71
2021/07/31 05:16:02;;;;;;;6.27;2.47;;;19.10;99.90;;;;;;4991685;28;20225;-71
2021/07/31 05:18:27;;;;;;;4.43;2.50;;;19.10;99.90;;;;;;4987872;28;20961;-71
2021/07/31 05:20:53;;;;;;;6.10;2.37;;;19.10;99.90;;;;;;4991243;28;20277;-72
2021/07/31 05:23:19;;;;;;;3.70;2.40;;;19.00;99.90;;;;;;4995404;28;20182;-72
2021/07/31 05:25:44;;;;;;;3.10;2.23;;;19.00;99.90;;;;;;4989953;28;20213;-72
2021/07/31 05:28:11;;;;;;;4.50;2.87;;;19.00;99.90;;;;;;4991464;28;20181;-72
2021/07/31 05:30:41;;;;;;;5.03;2.23;;;19.00;99.90;;;;;;4983016;28;20182;-71
2021/07/31 05:33:07;;;;;;;5.93;2.60;;;19.10;99.90;;;;;;4989488;28;20432;-72
2021/07/31 05:35:33;;;;;;;9.80;2.53;;;19.10;99.90;;;;;;4994341;28;20468;-72
2021/07/31 05:38:00;;;;;;;5.83;2.40;;;19.00;99.90;;;;;;4990987;28;20515;-72
2021/07/31 05:40:26;;;;;;;3.30;2.70;;;19.10;99.90;;;;;;4986293;28;20865;-71
2021/07/31 05:42:52;;;;;;;7.93;2.67;;;19.10;99.90;;;;;;4995029;28;20538;-71
2021/07/31 05:45:18;;;;;;;9.03;3.13;;;19.20;99.90;;;;;;4991694;28;20233;-72
2021/07/31 05:47:44;;;;;;;7.10;2.40;;;19.20;99.90;;;;;;4991710;28;20348;-72
2021/07/31 05:50:11;;;;;;;4.23;2.40;;;19.30;99.90;;;;;;4994176;28;20994;-72
2021/07/31 05:52:38;;;;;;;3.50;2.30;;;19.30;99.90;;;;;;4973983;28;20196;-72
2021/07/31 05:55:05;;;;;;;3.43;2.53;;;19.40;99.90;;;;;;4989383;28;20990;-72
2021/07/31 05:57:34;;;;;;;4.80;2.73;;;19.40;99.90;;;;;;4994777;28;20531;-71
2021/07/31 06:00:00;;;;;;;5.43;2.47;;;19.50;99.90;;;;;;4988406;28;20429;-71
2021/07/31 06:02:26;;;;;;;5.23;2.60;;;19.50;99.90;;;;;;4988221;28;20442;-71
2021/07/31 06:04:51;;;;;;;2.80;2.50;;;19.50;99.90;;;;;;4994761;28;20213;-72
2021/07/31 06:07:17;;;;;;;2.70;2.13;;;19.50;99.90;;;;;;4981403;28;20178;-72
2021/07/31 06:09:50;;;;;;;5.57;2.70;;;19.50;99.90;;;;;;4987701;28;20190;-72
2021/07/31 06:12:16;;;;;;;4.13;2.17;;;19.50;99.90;;;;;;4967998;28;20244;-70
2021/07/31 06:14:41;;;;;;;3.73;2.47;;;19.50;99.90;;;;;;4988094;28;20494;-72
2021/07/31 06:17:07;;;;;;;2.73;2.23;;;19.60;99.90;;;;;;4985917;28;20902;-71
2021/07/31 06:19:34;;;;;;;3.73;2.60;;;19.60;99.90;;;;;;4991167;28;20829;-71
2021/07/31 06:22:01;;;;;;;3.60;2.30;;;19.70;99.90;;;;;;4987686;28;20433;-72
2021/07/31 06:24:27;;;;;;;5.57;2.27;;;19.70;99.90;;;;;;4989962;28;20445;-72
2021/07/31 06:26:53;;;;;;;2.53;2.07;;;19.70;99.90;;;;;;4993030;28;20447;-72
2021/07/31 06:29:19;;;;;;;4.47;2.63;;;19.70;99.90;;;;;;4989712;28;20878;-73
2021/07/31 06:31:45;;;;;;;8.40;2.27;;;19.80;99.90;;;;;;4968228;28;20429;-73
2021/07/31 06:34:11;;;;;;;2.70;2.30;;;19.90;99.90;;;;;;4986317;28;20194;-72
2021/07/31 06:36:36;;;;;;;2.93;2.37;;;19.90;99.90;;;;;;4983887;28;20228;-71
2021/07/31 06:39:04;;;;;;;4.90;2.40;;;19.90;99.90;;;;;;4989314;28;20467;-72
2021/07/31 06:41:30;;;;;;;4.20;2.40;;;20.00;99.90;;;;;;4988712;28;20432;-72
2021/07/31 06:43:57;;;;;;;6.27;2.27;;;20.00;99.90;;;;;;4991749;28;20494;-72
2021/07/31 06:46:24;;;;;;;2.50;2.20;;;20.00;99.90;;;;;;4993707;28;20255;-71
2021/07/31 06:48:50;;;;;;;3.00;2.47;;;20.10;99.90;;;;;;4987082;28;20958;-72
2021/07/31 06:51:17;;;;;;;3.07;2.23;;;20.00;99.90;;;;;;4989376;28;20569;-72
2021/07/31 06:53:43;;;;;;;3.60;2.73;;;20.10;99.90;;;;;;4983792;28;20935;-72
2021/07/31 06:56:09;;;;;;;7.17;2.90;;;20.10;99.90;;;;;;4973121;28;21030;-72
2021/07/31 06:58:35;;;;;;;4.83;2.73;;;20.10;99.90;;;;;;4987693;28;20440;-72
2021/07/31 07:01:00;;;;;;;6.13;2.67;;;20.10;99.90;;;;;;4987572;28;20221;-71
2021/07/31 07:03:26;;;;;;;5.50;2.47;;;20.20;99.90;;;;;;4992491;28;20237;-72
2021/07/31 07:05:52;;;;;;;5.43;2.40;;;20.30;99.90;;;;;;4990634;28;20216;-71
2021/07/31 07:08:17;;;;;;;3.83;2.53;;;20.40;99.90;;;;;;4985599;28;20321;-72
2021/07/31 07:10:43;;;;;;;3.63;2.20;;;20.30;99.90;;;;;;4995186;28;20916;-72
2021/07/31 07:13:08;;;;;;;4.00;2.60;;;20.40;99.90;;;;;;4985846;28;20688;-73
2021/07/31 07:15:36;;;;;;;2.90;2.23;;;20.40;99.90;;;;;;4992878;28;20232;-72
2021/07/31 07:18:02;;;;;;;2.80;2.40;;;20.60;99.90;;;;;;4996814;28;20206;-72
2021/07/31 07:20:28;;;;;;;4.43;2.57;;;20.60;99.90;;;;;;4982553;28;20425;-72
2021/07/31 07:22:53;;;;;;;4.33;2.20;;;20.60;99.90;;;;;;4989988;28;20436;-73
2021/07/31 07:25:19;;;;;;;2.80;2.50;;;20.70;99.90;;;;;;4988342;28;21091;-73
2021/07/31 07:27:45;;;;;;;3.80;2.50;;;20.70;99.90;;;;;;4992968;28;20228;-75
2021/07/31 07:30:12;;;;;;;5.63;2.90;;;20.80;99.90;;;;;;4998700;28;20192;-75
2021/07/31 07:32:38;;;;;;;4.30;2.70;;;20.90;99.90;;;;;;4988713;28;20440;-72
2021/07/31 07:35:05;;;;;;;8.33;2.93;;;20.90;99.90;;;;;;4989804;28;20480;-73
2021/07/31 07:37:31;;;;;;;4.27;2.87;;;20.90;99.90;;;;;;4995913;28;20801;-72
2021/07/31 07:39:59;;;;;;;3.27;2.23;;;20.90;99.90;;;;;;4991530;28;21000;-72
2021/07/31 07:42:24;;;;;;;4.43;2.53;;;20.90;99.90;;;;;;4991499;28;20511;-72
2021/07/31 07:44:50;;;;;;;3.80;2.30;;;20.90;99.90;;;;;;4993383;28;20451;-72
2021/07/31 07:47:16;;;;;;;3.60;2.83;;;21.00;99.90;;;;;;4990798;28;20192;-73
2021/07/31 07:49:41;;;;;;;4.67;2.83;;;21.00;99.90;;;;;;4994770;28;20268;-73
2021/07/31 07:52:07;;;;;;;3.60;2.87;;;21.00;99.90;;;;;;4991647;28;20205;-72
2021/07/31 07:54:33;;;;;;;7.23;3.57;;;21.00;99.90;;;;;;4994478;28;20281;-72
2021/07/31 07:56:59;;;;;;;2.73;2.43;;;21.00;99.90;;;;;;4995921;28;20186;-71
2021/07/31 07:59:25;;;;;;;5.70;3.40;;;21.00;99.90;;;;;;4988569;28;20289;-72
2021/07/31 08:01:50;;;;;;;4.70;2.70;;;20.90;99.90;;;;;;4996793;28;21420;-71
2021/07/31 08:04:17;;;;;;;5.83;2.77;;;21.00;99.90;;;;;;4997900;28;20256;-71
2021/07/31 08:06:42;;;;;;;4.00;3.03;;;21.00;99.90;;;;;;4995138;28;20214;-72
2021/07/31 08:09:11;;;;;;;5.60;2.90;;;21.10;99.90;;;;;;4995905;28;20493;-73
2021/07/31 08:11:36;;;;;;;4.20;2.57;;;21.10;99.90;;;;;;4996732;28;20207;-72
2021/07/31 08:14:02;;;;;;;4.10;2.50;;;21.20;99.90;;;;;;4976172;28;20716;-72
2021/07/31 08:16:28;;;;;;;4.20;2.70;;;21.30;99.90;;;;;;4992775;28;20922;-72
2021/07/31 08:18:54;;;;;;;4.00;2.83;;;21.30;99.90;;;;;;4992922;28;20711;-72
2021/07/31 08:21:19;;;;;;;8.43;3.23;;;21.30;99.90;;;;;;4997093;28;20292;-72
2021/07/31 08:23:46;;;;;;;6.40;3.60;;;21.20;99.90;;;;;;4997051;28;20682;-72
2021/07/31 08:26:12;;;;;;;3.00;2.73;;;21.30;99.90;;;;;;4991601;28;20690;-71
2021/07/31 08:28:40;;;;;;;3.40;2.77;;;21.40;99.90;;;;;;4997428;28;20475;-73
2021/07/31 08:31:08;;;;;;;7.20;3.20;;;21.50;99.90;;;;;;4995086;28;20440;-71
2021/07/31 08:33:34;;;;;;;2.77;2.37;;;21.60;99.90;;;;;;4991744;28;20432;-71
2021/07/31 08:36:00;;;;;;;9.30;2.70;;;21.60;99.90;;;;;;4994902;28;20945;-71
2021/07/31 08:38:26;;;;;;;5.50;3.13;;;21.40;99.90;;;;;;4993141;28;20486;-73
2021/07/31 08:40:52;;;;;;;6.80;2.83;;;21.40;99.90;;;;;;4994460;28;20181;-71
2021/07/31 08:43:18;;;;;;;4.60;2.80;;;21.50;99.90;;;;;;4999445;28;20439;-71
2021/07/31 08:45:48;;;;;;;9.93;3.60;;;21.50;99.90;;;;;;4989521;28;20217;-72
2021/07/31 08:48:15;;;;;;;8.10;2.50;;;21.60;99.90;;;;;;4994700;28;20206;-72
2021/07/31 08:50:42;;;;;;;5.10;2.77;;;21.70;99.90;;;;;;4999181;28;20802;-71
2021/07/31 08:53:07;;;;;;;4.27;2.80;;;21.70;99.90;;;;;;4990555;28;20428;-72
2021/07/31 08:55:33;;;;;;;5.57;2.67;;;21.80;99.90;;;;;;4994939;28;20509;-72
2021/07/31 08:58:03;;;;;;;3.53;2.50;;;21.80;99.90;;;;;;4994688;28;20178;-72
2021/07/31 09:00:32;;;;;;;6.00;3.20;;;21.90;99.90;;;;;;4989306;28;20221;-73
2021/07/31 09:02:57;;;;;;;4.57;3.27;;;21.80;99.90;;;;;;4992455;28;20867;-72
2021/07/31 09:05:38;;;;;;;4.70;2.70;;;21.80;99.90;;;;;;4994666;28;20448;-73
2021/07/31 09:08:05;;;;;;;4.43;2.33;;;21.80;99.90;;;;;;4991658;28;20675;-73
2021/07/31 09:10:33;;;;;;;4.87;3.13;;;21.80;99.90;;;;;;4996792;28;20436;-72
2021/07/31 09:13:01;;;;;;;5.03;2.80;;;21.80;99.90;;;;;;4988902;28;20444;-72
2021/07/31 09:15:37;;;;;;;5.43;2.70;;;21.80;99.90;;;;;;4990634;28;20459;-73
2021/07/31 09:18:31;;;;;;;6.60;2.70;;;21.90;99.90;;;;;;4994624;28;20447;-72
2021/07/31 09:20:59;;;;;;;4.50;3.03;;;22.00;99.90;;;;;;4993316;28;20947;-73
2021/07/31 09:23:48;;;;;;;3.90;3.30;;;22.00;99.90;;;;;;4988799;28;20706;-72
2021/07/31 09:26:17;;;;;;;5.10;2.90;;;22.10;99.90;;;;;;4997108;28;20532;-73
2021/07/31 09:28:44;;;;;;;4.80;2.40;;;22.20;99.90;;;;;;4990455;28;20442;-73
2021/07/31 09:31:17;;;;;;;3.63;2.97;;;22.10;99.90;;;;;;4988838;28;20440;-72
2021/07/31 09:33:45;;;;;;;6.30;2.83;;;22.00;99.90;;;;;;4997129;28;20425;-72
2021/07/31 09:36:10;;;;;;;3.40;3.10;;;22.10;99.90;;;;;;4974820;28;20476;-73
2021/07/31 09:38:39;;;;;;;6.50;3.20;;;22.10;99.90;;;;;;4992373;28;20504;-73
2021/07/31 09:41:23;;;;;;;6.83;3.33;;;22.20;99.90;;;;;;4994690;28;20604;-73
2021/07/31 09:44:04;;;;;;;4.33;2.80;;;22.30;99.90;;;;;;4991506;28;20456;-73
2021/07/31 09:46:35;;;;;;;4.77;2.80;;;22.40;99.90;;;;;;4989931;28;20807;-73
2021/07/31 09:49:01;;;;;;;6.83;2.60;;;22.20;99.90;;;;;;4994092;28;20413;-72
2021/07/31 09:51:39;;;;;;;3.83;2.80;;;22.10;99.90;;;;;;4991451;28;20567;-72
2021/07/31 09:54:09;;;;;;;4.80;2.80;;;22.00;99.90;;;;;;4991178;28;21556;-72
2021/07/31 09:56:44;;;;;;;6.60;2.87;;;22.10;99.90;;;;;;4993124;28;20580;-72
2021/07/31 09:59:12;;;;;;;3.07;2.70;;;22.20;99.90;;;;;;4990010;28;20431;-73
2021/07/31 10:01:42;;;;;;;5.33;3.00;;;22.40;99.90;;;;;;4992802;28;20508;-73
2021/07/31 10:04:08;;;;;;;4.70;2.90;;;22.50;99.90;;;;;;4994736;28;20412;-73
2021/07/31 10:06:34;;;;;;;4.40;2.90;;;22.50;99.90;;;;;;4988605;28;20462;-72
2021/07/31 10:09:02;;;;;;;4.97;2.87;;;22.60;99.90;;;;;;4992209;28;20997;-71
2021/07/31 10:11:32;;;;;;;4.30;2.90;;;22.60;99.90;;;;;;4994058;28;20179;-72
2021/07/31 10:13:59;;;;;;;5.50;3.90;;;22.60;99.90;;;;;;4990182;28;20437;-72
2021/07/31 10:16:25;;;;;;;3.30;2.60;;;22.70;99.90;;;;;;4997460;28;21013;-72
2021/07/31 10:18:57;;;;;;;5.80;2.30;;;22.60;99.70;;;;;;4993223;28;20428;-72
2021/07/31 10:21:25;;;;;;;4.27;2.67;;;22.70;99.90;;;;;;4991208;28;20185;-73
2021/07/31 10:24:07;;;;;;;6.27;3.00;;;22.70;99.90;;;;;;4994597;28;20428;-73
2021/07/31 10:26:37;;;;;;;3.80;2.50;;;22.90;99.10;;;;;;4993479;28;20871;-73
2021/07/31 10:29:42;;;;;;;3.30;2.53;;;22.80;99.00;;;;;;4990578;28;20456;-73
2021/07/31 10:32:35;;;;;;;3.87;2.50;;;22.80;99.90;;;;;;4972948;28;20450;-73
2021/07/31 10:35:23;;;;;;;6.70;2.70;;;23.00;99.90;;;;;;4983394;28;20481;-73
2021/07/31 10:37:53;;;;;;;4.73;2.83;;;23.10;99.90;;;;;;4993591;28;20570;-73
2021/07/31 10:40:32;;;;;;;7.07;4.00;;;23.00;99.30;;;;;;4988321;28;20437;-72
2021/07/31 10:42:58;;;;;;;5.30;2.80;;;22.60;99.30;;;;;;4968915;28;20475;-73
2021/07/31 10:45:28;;;;;;;5.83;2.97;;;22.70;99.90;;;;;;4998901;28;20941;-73
2021/07/31 10:47:58;;;;;;;6.87;3.13;;;22.60;99.80;;;;;;4993351;28;20197;-73
2021/07/31 10:50:24;;;;;;;2.53;2.30;;;22.70;99.50;;;;;;4990809;28;20429;-73
2021/07/31 10:52:54;;;;;;;4.60;3.77;;;22.60;99.40;;;;;;4997010;28;20421;-73
2021/07/31 10:55:23;;;;;;;4.80;2.93;;;22.50;99.80;;;;;;4972461;28;20585;-72
2021/07/31 10:57:57;;;;;;;4.10;2.73;;;22.50;99.80;;;;;;4991561;28;20446;-72
2021/07/31 11:00:23;;;;;;;3.50;3.00;;;22.60;99.30;;;;;;4999380;28;20413;-72
2021/07/31 11:02:49;;;;;;;6.23;3.00;;;22.70;99.60;;;;;;4992356;28;20867;-73
2021/07/31 11:05:15;;;;;;;4.90;3.00;;;22.70;98.50;;;;;;5000391;28;20325;-72
2021/07/31 11:07:56;;;;;;;3.20;2.70;;;22.90;98.40;;;;;;4997772;28;20523;-72
2021/07/31 11:10:44;;;;;;;5.93;3.27;;;23.10;98.20;;;;;;4991364;28;20194;-72
2021/07/31 11:13:21;;;;;;;6.17;2.97;;;23.40;98.50;;;;;;4992975;28;20437;-72
2021/07/31 11:15:56;;;;;;;2.83;2.60;;;23.50;98.10;;;;;;4996979;28;20464;-71
2021/07/31 11:18:51;;;;;;;3.33;3.03;;;23.60;97.30;;;;;;4991713;28;20423;-72
2021/07/31 11:21:32;;;;;;;9.87;2.70;;;23.60;97.50;;;;;;4995614;28;20448;-72
2021/07/31 11:24:12;;;;;;;3.13;2.60;;;23.80;97.30;;;;;;4993918;28;20420;-72
2021/07/31 11:26:48;;;;;;;3.60;2.83;;;24.00;97.70;;;;;;4993175;28;20479;-72
2021/07/31 11:29:16;;;;;;;3.97;2.47;;;24.00;97.40;;;;;;4992615;28;20436;-71
2021/07/31 11:31:45;;;;;;;4.43;2.90;;;24.00;97.00;;;;;;4997776;28;20491;-72
2021/07/31 11:34:12;;;;;;;7.93;3.13;;;23.70;97.00;;;;;;4992760;28;20424;-72
2021/07/31 11:36:53;;;;;;;5.60;2.90;;;23.70;97.70;;;;;;4998155;28;20478;-72
2021/07/31 11:39:18;;;;;;;6.20;3.80;;;23.70;97.70;;;;;;4999880;28;20458;-72
2021/07/31 11:41:44;;;;;;;5.23;2.60;;;23.90;98.10;;;;;;4993163;28;20950;-72
2021/07/31 11:44:11;;;;;;;7.33;2.57;;;24.20;97.90;;;;;;4997650;28;20202;-71
2021/07/31 11:46:43;;;;;;;4.97;3.03;;;24.30;96.80;;;;;;4992662;28;20465;-71
2021/07/31 11:49:28;;;;;;;4.63;2.63;;;24.10;96.50;;;;;;4996807;28;20456;-72
2021/07/31 11:52:05;;;;;;;4.80;2.97;;;24.00;96.80;;;;;;4997458;28;20998;-72
2021/07/31 11:54:32;;;;;;;4.43;2.77;;;24.30;96.70;;;;;;4995824;28;20960;-72
2021/07/31 11:56:58;;;;;;;3.07;2.77;;;24.50;96.00;;;;;;4994045;28;20471;-72
2021/07/31 11:59:28;;;;;;;7.03;2.70;;;24.60;95.50;;;;;;5000955;28;20520;-72
2021/07/31 12:01:55;;;;;;;5.00;2.80;;;24.60;95.60;;;;;;4994788;28;20437;-73
2021/07/31 12:04:47;;;;;;;3.10;2.80;;;24.90;95.40;;;;;;4994971;28;20589;-72
2021/07/31 12:07:17;;;;;;;4.63;3.20;;;25.20;94.40;;;;;;4996133;28;20874;-73
2021/07/31 12:09:56;;;;;;;8.77;2.77;;;25.50;93.10;;;;;;4990585;28;20528;-72
2021/07/31 12:12:23;;;;;;;4.40;2.90;;;25.90;92.70;;;;;;4992301;28;20432;-72
2021/07/31 12:15:07;;;;;;;2.70;2.50;;;26.10;91.60;;;;;;4997941;28;20503;-71
2021/07/31 12:17:33;;;;;;;5.77;2.63;;;26.70;91.10;;;;;;4994544;28;20832;-73
2021/07/31 12:19:59;;;;;;;5.70;3.37;;;26.50;90.20;;;;;;4994885;28;20479;-71
2021/07/31 12:22:31;;;;;;;4.50;2.80;;;26.80;90.50;;;;;;4994799;28;20198;-72
2021/07/31 12:25:16;;;;;;;4.50;3.20;;;27.70;88.20;;;;;;4994962;28;20460;-73
2021/07/31 12:27:53;;;;;;;3.17;2.33;;;27.20;86.80;;;;;;4992964;28;20458;-73
2021/07/31 12:30:30;;;;;;;5.03;2.87;;;27.50;88.30;;;;;;4993714;28;20446;-72
2021/07/31 12:33:04;;;;;;;2.90;2.40;;;28.10;87.30;;;;;;5000064;28;20471;-73
2021/07/31 12:35:47;;;;;;;5.63;3.10;;;27.70;86.30;;;;;;4988195;28;20472;-73
2021/07/31 12:38:21;;;;;;;3.20;2.37;;;27.10;87.20;;;;;;4996157;28;20440;-72
2021/07/31 12:40:54;;;;;;;4.90;2.70;;;26.60;89.50;;;;;;4998512;28;20443;-72
2021/07/31 12:43:22;;;;;;;2.90;2.57;;;27.10;88.80;;;;;;4991248;28;21158;-72
2021/07/31 12:45:50;;;;;;;4.67;3.30;;;27.90;88.10;;;;;;4993912;28;20479;-72
2021/07/31 12:48:16;;;;;;;8.90;3.20;;;28.10;85.80;;;;;;4998450;28;20443;-73
2021/07/31 12:50:42;;;;;;;5.20;2.80;;;28.30;84.70;;;;;;4991299;28;20448;-73
2021/07/31 12:53:09;;;;;;;3.60;2.97;;;29.10;84.20;;;;;;4998523;28;20687;-73